Time;durP1;ratioP1;P1;durP2;ratioP2;P2;SDS_P1;SDS_P2;PMS_P1;PMS_P2;Temp;Humidity;BMP_temperature;BMP_pressure;BME280_temperature;BME280_humidity;BME280_pressure;Samples;Min_cycle;Max_cycle;Signal;HPM_P1;HPM_P2
2023/09/08 00:00:24;;;;;;;5.40;3.70;;;;;;;20.34;85.65;99967.00;12221280;19;20035;-88
2023/09/08 00:04:26;;;;;;;7.45;3.88;;;;;;;20.34;85.51;99964.22;12208871;19;20014;-87
2023/09/08 00:08:29;;;;;;;5.70;3.90;;;;;;;20.37;84.72;99968.34;12191573;19;20073;-86
2023/09/08 00:12:31;;;;;;;6.57;3.83;;;;;;;20.38;84.70;99970.03;12213439;19;20255;-88
2023/09/08 00:16:33;;;;;;;8.75;4.13;;;;;;;20.36;84.66;99961.94;12212098;19;20014;-86
2023/09/08 00:20:35;;;;;;;6.80;4.17;;;;;;;20.37;84.47;99958.00;12197810;19;20014;-86
2023/09/08 00:24:37;;;;;;;6.47;4.13;;;;;;;20.37;84.77;99954.38;12209695;19;20090;-86
2023/09/08 00:28:40;;;;;;;5.72;3.85;;;;;;;20.37;84.61;99958.00;12211339;19;20525;-87
2023/09/08 00:32:42;;;;;;;6.65;4.57;;;;;;;20.36;84.58;99956.34;12187595;19;20007;-87
2023/09/08 00:36:53;;;;;;;9.57;4.68;;;;;;;20.38;84.86;99956.03;12205979;19;20082;-87
2023/09/08 00:40:56;;;;;;;10.02;4.32;;;;;;;20.37;85.07;99955.19;12212455;19;20024;-87
2023/09/08 00:44:59;;;;;;;6.60;4.10;;;;;;;20.38;84.69;99945.69;12185625;19;20019;-87
2023/09/08 00:49:01;;;;;;;10.20;4.95;;;;;;;20.40;85.17;99951.75;12208519;19;20626;-87
2023/09/08 00:53:07;;;;;;;7.43;4.50;;;;;;;20.41;84.92;99947.84;12208423;19;20011;-87
2023/09/08 00:57:10;;;;;;;10.45;4.85;;;;;;;20.40;85.06;99939.75;12200660;19;20010;-89
2023/09/08 01:01:12;;;;;;;9.93;4.90;;;;;;;20.37;85.11;99949.59;12217163;19;20018;-87
2023/09/08 01:05:16;;;;;;;6.82;4.45;;;;;;;20.32;85.64;99951.69;12214695;19;20015;-87
2023/09/08 01:09:24;;;;;;;7.47;3.88;;;;;;;20.25;86.25;99944.50;12193728;19;20016;-86
2023/09/08 01:13:26;;;;;;;8.68;4.13;;;;;;;20.21;86.92;99949.09;12214204;19;20461;-88
2023/09/08 01:17:28;;;;;;;6.50;3.90;;;;;;;20.21;86.15;99945.47;12189021;19;20010;-88
2023/09/08 01:22:00;;;;;;;5.55;4.10;;;;;;;20.20;87.17;99952.22;12209862;19;20054;-88
2023/09/08 01:26:08;;;;;;;;;;;;;;;20.12;87.52;99953.75;12205715;19;20026;-89
2023/09/08 01:30:11;;;;;;;9.82;3.90;;;;;;;20.07;88.06;99961.41;12186401;19;19911;-88
2023/09/08 01:34:13;;;;;;;10.95;4.60;;;;;;;20.04;88.85;99960.88;12205291;19;20011;-88
2023/09/08 01:38:16;;;;;;;6.00;4.28;;;;;;;19.98;90.06;99956.53;12206633;19;20104;-88
2023/09/08 01:42:18;;;;;;;7.35;4.10;;;;;;;19.92;89.90;99946.56;12183084;19;20010;-87
2023/09/08 01:46:20;;;;;;;7.33;3.73;;;;;;;19.88;90.30;99951.13;12215835;19;20007;-88
2023/09/08 01:50:24;;;;;;;8.73;4.72;;;;;;;19.82;91.19;99944.00;12184826;19;20583;-88
2023/09/08 01:54:28;;;;;;;12.80;5.03;;;;;;;19.73;92.31;99938.28;12204345;19;20007;-89
2023/09/08 01:58:32;;;;;;;9.45;4.28;;;;;;;19.63;93.38;99944.03;12210593;19;20025;-87
2023/09/08 02:02:34;;;;;;;8.13;4.45;;;;;;;19.54;94.21;99940.25;12195257;19;20074;-88
2023/09/08 02:06:37;;;;;;;7.60;4.30;;;;;;;19.45;94.63;99948.50;12207697;19;20002;-87
2023/09/08 02:10:40;;;;;;;11.07;5.50;;;;;;;19.38;95.56;99942.50;12206440;19;20368;-87
2023/09/08 02:14:42;;;;;;;7.20;4.55;;;;;;;19.37;95.26;99948.41;12187004;19;20081;-87
2023/09/08 02:18:45;;;;;;;8.32;4.82;;;;;;;19.35;95.46;99952.31;12205410;19;20014;-88
2023/09/08 02:22:50;;;;;;;9.57;4.95;;;;;;;19.32;96.26;99941.75;12206968;19;20027;-88
2023/09/08 02:26:52;;;;;;;8.18;4.70;;;;;;;19.28;97.72;99939.88;12175006;19;20015;-88
2023/09/08 02:30:56;;;;;;;8.57;4.63;;;;;;;19.25;98.60;99941.31;12199410;19;21558;-87
2023/09/08 02:34:58;;;;;;;11.10;4.97;;;;;;;19.20;99.27;99934.97;12197137;19;20003;-87
2023/09/08 02:39:01;;;;;;;9.77;5.40;;;;;;;19.13;99.87;99938.16;12176246;19;20407;-87
2023/09/08 02:43:04;;;;;;;8.63;4.88;;;;;;;19.04;100.00;99948.38;12197127;19;20098;-88
2023/09/08 02:47:06;;;;;;;8.77;5.35;;;;;;;18.97;100.00;99943.13;12203297;19;20036;-86
2023/09/08 02:51:12;;;;;;;7.45;4.88;;;;;;;18.92;100.00;99945.19;12179480;19;20123;-86
2023/09/08 02:55:13;;;;;;;6.97;4.53;;;;;;;18.88;100.00;99933.78;12196065;19;20043;-86
2023/09/08 02:59:16;;;;;;;9.18;4.63;;;;;;;18.85;100.00;99946.38;12213197;19;20035;-86
2023/09/08 03:03:19;;;;;;;12.18;5.35;;;;;;;18.81;100.00;99941.72;12192696;19;20007;-86
2023/09/08 03:07:21;;;;;;;10.48;5.40;;;;;;;18.77;100.00;99943.44;12206636;19;19998;-86
2023/09/08 03:11:23;;;;;;;10.00;5.13;;;;;;;18.73;100.00;99942.38;12183236;19;20011;-87
2023/09/08 03:15:27;;;;;;;10.00;4.97;;;;;;;18.74;100.00;99935.66;12205267;19;20010;-87
2023/09/08 03:19:29;;;;;;;7.90;5.07;;;;;;;18.73;100.00;99934.84;12202999;19;20010;-88
2023/09/08 03:23:31;;;;;;;;;;;;;;;18.75;100.00;99934.56;12181924;19;20015;-87
2023/09/08 03:27:33;;;;;;;8.90;5.13;;;;;;;18.78;100.00;99936.75;12200370;19;19984;-88
2023/09/08 03:31:35;;;;;;;10.52;4.90;;;;;;;18.76;100.00;99937.03;12197483;19;20003;-88
2023/09/08 03:35:37;;;;;;;10.38;5.07;;;;;;;18.78;100.00;99939.53;12174053;19;20011;-88
2023/09/08 03:39:40;;;;;;;10.07;5.28;;;;;;;18.77;100.00;99941.50;12201263;19;20027;-90
2023/09/08 03:43:42;;;;;;;9.03;5.27;;;;;;;18.75;100.00;99938.19;12197091;19;20014;-86
2023/09/08 03:47:47;;;;;;;9.38;4.95;;;;;;;18.76;100.00;99936.22;12178252;19;20632;-87
2023/09/08 03:51:49;;;;;;;7.90;5.38;;;;;;;18.74;100.00;99935.66;12200609;19;20013;-86
2023/09/08 03:55:51;;;;;;;6.10;4.37;;;;;;;18.76;100.00;99939.00;12195364;19;20065;-86
2023/09/08 03:59:54;;;;;;;10.27;5.45;;;;;;;18.76;100.00;99939.81;12179152;19;20006;-87
2023/09/08 04:03:56;;;;;;;7.73;4.83;;;;;;;18.76;100.00;99945.41;12190142;19;20014;-86
2023/09/08 04:07:58;;;;;;;8.77;4.40;;;;;;;18.76;100.00;99948.19;12200140;19;20010;-86
2023/09/08 04:12:01;;;;;;;7.45;4.55;;;;;;;18.74;100.00;99944.91;12181127;19;20086;-86
2023/09/08 04:16:05;;;;;;;6.97;4.97;;;;;;;18.74;100.00;99944.03;12201857;19;20858;-87
2023/09/08 04:20:08;;;;;;;8.82;4.47;;;;;;;18.74;100.00;99947.69;12209990;19;20343;-88
2023/09/08 04:24:13;;;;;;;7.75;4.90;;;;;;;18.71;100.00;99953.00;12178846;19;20488;-87
2023/09/08 04:28:15;;;;;;;13.45;5.20;;;;;;;18.68;100.00;99946.91;12197940;19;20042;-87
2023/09/08 04:32:17;;;;;;;8.95;4.78;;;;;;;18.67;100.00;99958.34;12204235;19;20002;-87
2023/09/08 04:36:19;;;;;;;13.30;5.33;;;;;;;18.64;100.00;99953.38;12176619;19;20470;-86
2023/09/08 04:40:21;;;;;;;8.60;4.90;;;;;;;18.62;100.00;99961.19;12192310;19;20007;-87
2023/09/08 04:44:23;;;;;;;9.52;5.50;;;;;;;18.60;100.00;99969.88;12203883;19;20040;-87
2023/09/08 04:48:25;;;;;;;9.73;5.10;;;;;;;18.58;100.00;99963.75;12204894;19;20007;-85
2023/09/08 04:52:31;;;;;;;10.45;5.38;;;;;;;18.55;100.00;99967.16;12195138;19;20037;-87
2023/09/08 04:56:36;;;;;;;8.88;4.85;;;;;;;18.55;100.00;99975.53;12172022;19;20002;-88
2023/09/08 05:00:41;;;;;;;12.82;6.05;;;;;;;18.55;100.00;99975.53;12201113;19;20011;-87
2023/09/08 05:04:43;;;;;;;10.63;6.00;;;;;;;18.58;100.00;99980.50;12198098;19;20006;-86
2023/09/08 05:08:47;;;;;;;7.68;4.53;;;;;;;18.57;100.00;99973.28;12194167;19;20294;-87
2023/09/08 05:12:50;;;;;;;9.30;5.40;;;;;;;18.61;100.00;99973.50;12205738;19;20461;-87
2023/09/08 05:16:56;;;;;;;9.15;5.20;;;;;;;18.62;100.00;99975.16;12193759;19;20006;-86
2023/09/08 05:21:02;;;;;;;7.53;5.35;;;;;;;18.60;100.00;99978.25;12185901;19;20036;-86
2023/09/08 05:25:04;;;;;;;9.00;5.45;;;;;;;18.58;100.00;99983.31;12200003;19;20031;-86
2023/09/08 05:29:06;;;;;;;10.57;5.47;;;;;;;18.58;100.00;99985.25;12205922;19;20027;-86
2023/09/08 05:33:10;;;;;;;12.30;4.95;;;;;;;18.56;100.00;99981.94;12180435;19;20140;-86
2023/09/08 05:37:13;;;;;;;6.60;5.13;;;;;;;18.54;100.00;99979.47;12204480;19;20014;-84
2023/09/08 05:41:15;;;;;;;9.57;5.00;;;;;;;18.54;100.00;99987.81;12203203;19;20074;-85
2023/09/08 05:45:17;;;;;;;9.65;5.22;;;;;;;18.54;100.00;99982.25;12186206;19;20031;-84
2023/09/08 05:49:19;;;;;;;9.02;5.28;;;;;;;18.56;100.00;99991.16;12199327;19;21621;-82
2023/09/08 05:53:21;;;;;;;8.57;5.50;;;;;;;18.63;100.00;99994.41;12180077;19;20038;-84
2023/09/08 05:57:24;;;;;;;8.00;5.10;;;;;;;18.70;100.00;99998.78;12226091;19;20018;-84
2023/09/08 06:01:26;;;;;;;11.00;5.20;;;;;;;18.73;100.00;99998.19;12210294;19;20014;-81
2023/09/08 06:05:28;;;;;;;7.53;5.17;;;;;;;18.75;100.00;99993.19;12217991;19;20006;-81
2023/09/08 06:09:30;;;;;;;9.53;5.30;;;;;;;18.80;100.00;99990.28;12237927;19;20251;-83
2023/09/08 06:13:33;;;;;;;8.03;4.70;;;;;;;18.91;100.00;99980.66;12232375;19;20013;-82
2023/09/08 06:17:35;;;;;;;9.52;6.13;;;;;;;19.02;100.00;99986.94;12213401;19;20355;-84
2023/09/08 06:21:38;;;;;;;7.75;5.75;;;;;;;19.12;100.00;99981.19;12230922;19;20006;-84
2023/09/08 06:25:41;;;;;;;6.30;3.92;;;;;;;19.20;100.00;99979.69;12235073;19;20011;-84
2023/09/08 06:29:43;;;;;;;;;;;;;;;19.29;100.00;99983.44;12208612;19;20006;-82
2023/09/08 06:33:49;;;;;;;11.60;5.80;;;;;;;19.45;100.00;99982.03;12217411;19;20390;-84
2023/09/08 06:37:53;;;;;;;10.68;5.93;;;;;;;19.54;100.00;99973.78;12210648;19;20038;-84
2023/09/08 06:41:55;;;;;;;10.15;4.88;;;;;;;19.67;100.00;99977.81;12196808;19;20002;-82
2023/09/08 06:45:58;;;;;;;10.55;5.70;;;;;;;19.84;100.00;99983.66;12229379;19;20009;-82
2023/09/08 06:50:02;;;;;;;11.02;5.57;;;;;;;19.94;100.00;99977.03;12236628;19;20013;-81
2023/09/08 06:54:04;;;;;;;9.27;5.67;;;;;;;20.02;100.00;99984.72;12198175;19;20015;-83
2023/09/08 06:58:14;;;;;;;9.07;5.45;;;;;;;20.12;100.00;99973.34;12206792;19;20804;-84
2023/09/08 07:02:18;;;;;;;9.60;5.45;;;;;;;20.32;100.00;99980.50;12201401;19;20015;-84
2023/09/08 07:06:22;;;;;;;9.90;5.43;;;;;;;20.45;100.00;99979.66;12198237;19;20525;-85
2023/09/08 07:10:25;;;;;;;7.13;5.00;;;;;;;20.67;98.83;99989.31;12194469;19;20003;-82
2023/09/08 07:14:28;;;;;;;8.80;4.85;;;;;;;20.91;96.01;99980.66;12166119;19;20020;-84
2023/09/08 07:18:34;;;;;;;8.48;5.18;;;;;;;21.25;94.06;99982.94;12196342;19;20551;-84
2023/09/08 07:22:37;;;;;;;7.43;4.55;;;;;;;21.50;92.29;99989.94;12189968;19;20006;-84
2023/09/08 07:26:39;;;;;;;8.50;5.33;;;;;;;21.67;91.84;99983.63;12168766;19;20003;-84
2023/09/08 07:30:42;;;;;;;11.13;5.40;;;;;;;21.88;91.58;99985.91;12188680;19;20256;-84
2023/09/08 07:34:44;;;;;;;;;;;;;;;22.04;90.48;99995.53;12193467;19;20458;-84
2023/09/08 07:38:46;;;;;;;8.87;5.20;;;;;;;22.24;87.88;99983.78;12171518;19;19929;-84
2023/09/08 07:42:48;;;;;;;12.63;5.50;;;;;;;22.53;87.01;99993.66;12193105;19;20025;-84
2023/09/08 07:46:51;;;;;;;;;;;;;;;22.78;85.74;99996.84;12195054;19;20267;-84
2023/09/08 07:50:53;;;;;;;7.63;5.13;;;;;;;23.08;84.78;99995.97;12174675;19;19915;-85
2023/09/08 07:54:54;;;;;;;8.27;5.23;;;;;;;23.35;82.14;99986.38;12187936;19;20006;-85
2023/09/08 07:58:56;;;;;;;8.23;4.83;;;;;;;23.62;79.98;100001.25;12193551;19;20003;-85
2023/09/08 08:02:59;;;;;;;9.52;5.25;;;;;;;23.86;79.74;99997.94;12191828;19;20654;-86
2023/09/08 08:07:02;;;;;;;12.07;5.60;;;;;;;24.04;78.88;99996.72;12192909;19;20090;-84
2023/09/08 08:11:12;;;;;;;7.05;4.53;;;;;;;24.27;77.54;99994.50;12182726;19;20358;-84
2023/09/08 08:15:14;;;;;;;10.80;5.13;;;;;;;24.52;76.31;99995.56;12157797;19;20023;-85
2023/09/08 08:19:16;;;;;;;5.50;4.13;;;;;;;24.72;74.82;100004.41;12190835;19;20015;-85
2023/09/08 08:23:18;;;;;;;7.17;5.07;;;;;;;24.97;74.79;100005.41;12187692;19;20003;-86
2023/09/08 08:27:20;;;;;;;7.65;5.45;;;;;;;25.17;73.42;99998.19;12187320;19;19998;-86
2023/09/08 08:31:21;;;;;;;6.70;4.93;;;;;;;25.42;72.42;100004.78;12184601;19;20026;-85
2023/09/08 08:35:23;;;;;;;9.02;4.80;;;;;;;25.57;70.64;100006.13;12164480;19;20660;-86
2023/09/08 08:39:25;;;;;;;10.40;5.68;;;;;;;25.71;70.11;100005.84;12200440;19;20050;-85
2023/09/08 08:43:28;;;;;;;;;;;;;;;25.74;69.63;100002.34;12192020;19;20457;-85
2023/09/08 08:47:31;;;;;;;8.50;4.93;;;;;;;25.94;68.89;100001.50;12169497;19;19978;-84
2023/09/08 08:51:35;;;;;;;7.70;4.88;;;;;;;26.22;67.48;100007.31;12185725;19;20006;-84
2023/09/08 08:55:37;;;;;;;7.28;5.10;;;;;;;26.25;67.13;100003.78;12181306;19;20478;-84
2023/09/08 08:59:41;;;;;;;8.32;4.97;;;;;;;26.40;67.23;99999.44;12171439;19;20004;-84
2023/09/08 09:03:43;;;;;;;9.57;5.63;;;;;;;26.64;66.93;99997.84;12184106;19;20039;-85
2023/09/08 09:07:46;;;;;;;10.38;5.40;;;;;;;26.83;65.77;100003.72;12186677;19;20015;-84
2023/09/08 09:11:47;;;;;;;7.50;5.60;;;;;;;27.00;64.05;99999.81;12160924;19;20031;-85
2023/09/08 09:15:50;;;;;;;11.55;5.50;;;;;;;27.22;63.93;99996.50;12184849;19;20031;-84
2023/09/08 09:20:17;;;;;;;8.27;5.88;;;;;;;27.38;63.77;100001.41;12189257;19;20074;-85
2023/09/08 09:24:33;;;;;;;7.90;5.75;;;;;;;27.56;64.18;99999.09;12163494;19;20020;-84
2023/09/08 09:28:47;;;;;;;9.48;5.43;;;;;;;27.73;62.53;99999.63;12186190;19;20082;-84
2023/09/08 09:33:00;;;;;;;8.55;4.95;;;;;;;27.91;61.65;99990.81;12163209;19;20011;-84
2023/09/08 09:37:05;;;;;;;10.23;5.75;;;;;;;28.07;60.92;100003.00;12182956;19;20074;-83
2023/09/08 09:41:08;;;;;;;8.00;5.32;;;;;;;28.26;60.30;99998.63;12187880;19;20381;-85
2023/09/08 09:45:09;;;;;;;;;;;;;;;28.40;58.89;99987.66;12160857;19;20101;-83
2023/09/08 09:49:17;;;;;;;9.20;5.30;;;;;;;28.57;58.06;99987.31;12182050;19;19921;-84
2023/09/08 09:53:20;;;;;;;7.70;5.20;;;;;;;28.59;55.21;99987.78;12161468;19;20259;-85
2023/09/08 09:57:23;;;;;;;7.00;5.30;;;;;;;28.85;53.83;99986.34;12177147;19;20030;-83
2023/09/08 10:01:26;;;;;;;7.68;6.07;;;;;;;28.97;53.34;99980.59;12182521;19;20010;-84
2023/09/08 10:05:29;;;;;;;10.00;6.03;;;;;;;28.94;54.79;99983.31;12168403;19;20015;-85
2023/09/08 10:09:30;;;;;;;8.40;5.07;;;;;;;28.98;54.55;99979.38;12190351;19;20002;-84
2023/09/08 10:13:37;;;;;;;;;;;;;;;29.05;54.73;99979.56;12192768;19;20469;-83
2023/09/08 10:17:42;;;;;;;7.05;4.85;;;;;;;29.18;53.29;99983.13;12166980;19;20369;-83
2023/09/08 10:21:48;;;;;;;8.00;5.72;;;;;;;29.19;53.97;99979.06;12187748;19;20472;-83
2023/09/08 10:25:55;;;;;;;10.65;6.03;;;;;;;29.18;54.28;99983.13;12183669;19;20006;-84
2023/09/08 10:30:02;;;;;;;9.85;6.57;;;;;;;29.58;52.90;99973.41;12170214;19;20075;-85
2023/09/08 10:34:05;;;;;;;10.48;6.45;;;;;;;29.69;52.44;99963.13;12185281;19;20017;-85
2023/09/08 10:38:31;;;;;;;9.55;6.15;;;;;;;29.86;51.56;99961.00;12197055;19;20023;-83
2023/09/08 10:42:33;;;;;;;9.00;5.65;;;;;;;30.07;49.64;99952.84;12173865;19;20010;-83
2023/09/08 10:46:37;;;;;;;8.30;5.18;;;;;;;30.24;47.64;99951.56;12188517;19;20378;-84
2023/09/08 10:50:41;;;;;;;9.63;5.35;;;;;;;30.15;46.95;99956.66;12166029;19;20008;-83
2023/09/08 10:54:44;;;;;;;11.65;6.82;;;;;;;30.19;48.44;99951.84;12183463;19;20010;-84
2023/09/08 10:58:51;;;;;;;6.97;5.03;;;;;;;30.41;46.38;99948.22;12188235;19;20026;-82
2023/09/08 11:02:57;;;;;;;8.27;4.85;;;;;;;30.59;45.10;99945.66;12169279;19;20020;-83
2023/09/08 11:07:00;;;;;;;6.13;4.85;;;;;;;30.66;44.06;99947.78;12189499;19;20006;-83
2023/09/08 11:11:02;;;;;;;8.23;4.82;;;;;;;30.68;44.16;99947.41;12189702;19;20018;-82
2023/09/08 11:15:09;;;;;;;5.90;4.60;;;;;;;30.87;43.80;99948.13;12164742;19;20099;-84
2023/09/08 11:19:12;;;;;;;5.72;4.43;;;;;;;31.05;44.10;99947.56;12191409;19;20024;-84
2023/09/08 11:23:14;;;;;;;6.55;4.70;;;;;;;31.27;44.32;99943.00;12194793;19;20015;-82
2023/09/08 11:27:17;;;;;;;7.60;4.78;;;;;;;31.36;42.23;99934.19;12172109;19;20014;-83
2023/09/08 11:31:20;;;;;;;12.63;4.72;;;;;;;31.50;42.46;99931.50;12193825;19;20007;-83
2023/09/08 11:35:27;;;;;;;8.57;5.22;;;;;;;31.57;41.79;99928.75;12167670;19;20010;-82
2023/09/08 11:39:28;;;;;;;9.20;4.93;;;;;;;31.62;42.14;99930.41;12190156;19;20081;-82
2023/09/08 11:43:32;;;;;;;;;;;;;;;31.78;42.68;99925.31;12190045;19;20006;-82
2023/09/08 11:47:35;;;;;;;8.32;5.03;;;;;;;32.40;42.00;99925.50;12164079;19;19914;-83
2023/09/08 11:51:37;;;;;;;6.75;5.03;;;;;;;33.03;39.62;99917.81;12189001;19;20021;-82
2023/09/08 11:55:41;;;;;;;6.13;4.50;;;;;;;33.51;38.10;99911.13;12179829;19;20010;-82
2023/09/08 11:59:45;;;;;;;7.28;5.90;;;;;;;34.20;37.45;99904.31;12167693;19;20038;-83
2023/09/08 12:03:54;;;;;;;8.27;5.43;;;;;;;34.61;35.31;99912.50;12183713;19;20778;-81
2023/09/08 12:08:04;;;;;;;8.73;5.82;;;;;;;35.04;35.25;99904.66;12172166;19;20335;-84
2023/09/08 12:12:14;;;;;;;6.75;5.25;;;;;;;35.49;34.74;99907.72;12178075;19;20018;-84
2023/09/08 12:16:20;;;;;;;5.70;5.10;;;;;;;35.97;33.53;99909.91;12193877;19;20086;-84
2023/09/08 12:20:22;;;;;;;6.80;5.40;;;;;;;36.27;31.74;99899.88;12178078;19;20031;-84
2023/09/08 12:24:56;;;;;;;7.28;5.60;;;;;;;36.75;31.81;99896.16;12205967;19;20002;-84
2023/09/08 12:28:58;;;;;;;6.63;5.28;;;;;;;36.90;30.92;99883.25;12192658;19;20020;-84
2023/09/08 12:33:01;;;;;;;6.07;5.22;;;;;;;37.21;30.80;99891.13;12172891;19;20010;-84
2023/09/08 12:37:07;;;;;;;8.30;5.50;;;;;;;37.78;30.38;99891.19;12193523;19;20015;-84
2023/09/08 12:41:09;;;;;;;6.65;5.43;;;;;;;38.20;29.32;99886.00;12199530;19;20026;-84
2023/09/08 12:45:10;;;;;;;6.93;5.43;;;;;;;38.59;28.98;99875.06;12174145;19;20017;-84
2023/09/08 12:49:13;;;;;;;5.85;5.25;;;;;;;39.01;28.19;99879.19;12195562;19;20482;-85
2023/09/08 12:53:17;;;;;;;5.25;4.70;;;;;;;39.15;28.41;99878.09;12186579;19;20006;-85
2023/09/08 12:57:20;;;;;;;7.72;5.13;;;;;;;39.62;27.15;99872.97;12173152;19;20424;-83
2023/09/08 13:01:22;;;;;;;6.47;5.20;;;;;;;40.07;28.00;99875.19;12199456;19;20462;-85
2023/09/08 13:05:23;;;;;;;6.03;5.43;;;;;;;40.51;26.84;99866.22;12176561;19;20014;-84
2023/09/08 13:09:25;;;;;;;7.07;5.32;;;;;;;40.83;26.16;99862.47;12220096;19;20023;-84
2023/09/08 13:13:29;;;;;;;7.15;5.05;;;;;;;40.96;25.51;99863.34;12214028;19;20014;-87
2023/09/08 13:17:31;;;;;;;6.93;5.80;;;;;;;40.87;25.37;99854.50;12179053;19;20078;-84
2023/09/08 13:21:33;;;;;;;5.28;4.75;;;;;;;41.22;25.47;99854.75;12193534;19;20020;-84
2023/09/08 13:25:34;;;;;;;8.60;5.35;;;;;;;41.32;24.89;99847.00;12186638;19;20003;-85
2023/09/08 13:29:36;;;;;;;5.38;4.85;;;;;;;41.09;25.26;99842.38;12168832;19;20002;-84
2023/09/08 13:33:38;;;;;;;7.07;4.60;;;;;;;41.02;24.63;99843.34;12186013;19;20011;-84
2023/09/08 13:37:42;;;;;;;5.65;4.72;;;;;;;40.94;24.87;99836.16;12179979;19;20034;-83
2023/09/08 13:41:46;;;;;;;5.50;5.00;;;;;;;41.32;24.75;99826.78;12168792;19;20481;-83
2023/09/08 13:45:47;;;;;;;7.35;5.07;;;;;;;41.82;24.14;99822.31;12191043;19;20531;-83
2023/09/08 13:49:49;;;;;;;6.15;5.15;;;;;;;42.01;24.06;99812.59;12194449;19;21583;-83
2023/09/08 13:53:51;;;;;;;5.78;5.28;;;;;;;42.20;23.69;99819.38;12173545;19;20031;-83
2023/09/08 13:57:53;;;;;;;5.25;4.75;;;;;;;41.68;23.94;99812.03;12200604;19;20016;-83
2023/09/08 14:01:57;;;;;;;5.75;4.80;;;;;;;40.90;24.04;99816.06;12206774;19;20514;-86
2023/09/08 14:06:19;;;;;;;7.47;4.97;;;;;;;39.74;25.90;99822.41;12187812;19;21166;-85
2023/09/08 14:10:25;;;;;;;7.53;5.00;;;;;;;38.14;26.63;99817.91;12208290;19;20010;-84
2023/09/08 14:14:40;;;;;;;7.10;5.28;;;;;;;36.73;27.79;99816.19;12184529;19;20015;-84
2023/09/08 14:18:42;;;;;;;6.68;5.28;;;;;;;35.83;29.19;99816.19;12204389;19;20014;-83
2023/09/08 14:22:44;;;;;;;7.03;5.28;;;;;;;35.05;30.25;99822.44;12199736;19;20003;-83
2023/09/08 14:26:46;;;;;;;6.57;5.38;;;;;;;34.65;31.24;99816.00;12182386;19;20098;-84
2023/09/08 14:30:50;;;;;;;6.55;5.47;;;;;;;34.16;30.97;99809.94;12204531;19;20086;-83
2023/09/08 14:34:52;;;;;;;9.25;5.82;;;;;;;33.88;31.97;99807.91;12200991;19;20015;-85
2023/09/08 14:38:55;;;;;;;9.05;5.43;;;;;;;33.66;32.08;99811.97;12188685;19;20002;-84
2023/09/08 14:42:57;;;;;;;7.40;5.18;;;;;;;33.57;32.69;99809.50;12201215;19;20006;-83
2023/09/08 14:46:59;;;;;;;6.80;4.93;;;;;;;33.95;32.04;99807.09;12206649;19;20018;-85
2023/09/08 14:51:01;;;;;;;5.53;4.60;;;;;;;34.40;32.06;99799.69;12181727;19;20007;-83
2023/09/08 14:55:04;;;;;;;6.97;5.18;;;;;;;34.59;32.29;99804.16;12202909;19;20019;-84
2023/09/08 14:59:08;;;;;;;9.20;5.05;;;;;;;34.24;32.49;99805.06;12204414;19;20015;-84
2023/09/08 15:03:10;;;;;;;10.27;4.88;;;;;;;34.22;32.77;99801.78;12184098;19;20546;-85
2023/09/08 15:07:12;;;;;;;6.85;4.78;;;;;;;34.36;32.46;99800.94;12204040;19;20006;-85
2023/09/08 15:11:14;;;;;;;5.00;4.28;;;;;;;33.99;33.21;99802.97;12202465;19;20011;-83
2023/09/08 15:15:18;;;;;;;5.63;4.95;;;;;;;33.61;33.59;99800.94;12180331;19;20094;-84
2023/09/08 15:19:20;;;;;;;7.18;4.72;;;;;;;33.21;33.96;99792.28;12198514;19;20014;-83
2023/09/08 15:23:22;;;;;;;6.22;4.55;;;;;;;33.41;33.61;99789.88;12178701;19;20002;-83
2023/09/08 15:27:24;;;;;;;5.68;4.47;;;;;;;33.21;33.58;99792.28;12201878;19;20461;-83
2023/09/08 15:31:26;;;;;;;7.40;4.95;;;;;;;32.75;34.32;99781.50;12205317;19;20017;-84
2023/09/08 15:35:28;;;;;;;7.88;4.95;;;;;;;32.39;35.52;99791.88;12183985;19;20030;-83
2023/09/08 15:39:29;;;;;;;;;;;;;;;31.97;35.51;99793.22;12201206;19;20010;-83
2023/09/08 15:43:31;;;;;;;6.60;4.95;;;;;;;31.72;36.42;99799.50;12199880;19;19927;-85
2023/09/08 15:47:33;;;;;;;;;;;;;;;31.41;36.23;99800.84;12181473;19;20023;-85
2023/09/08 15:51:35;;;;;;;7.47;4.60;;;;;;;31.25;38.35;99801.03;12197144;19;20326;-84
2023/09/08 15:55:37;;;;;;;;;;;;;;;31.02;37.83;99798.34;12201622;19;20493;-84
2023/09/08 15:59:39;;;;;;;8.40;4.78;;;;;;;30.88;38.45;99793.31;12185216;19;19931;-85
2023/09/08 16:03:41;;;;;;;8.48;4.78;;;;;;;30.75;39.55;99791.88;12205959;19;20054;-84
2023/09/08 16:07:45;;;;;;;7.53;4.63;;;;;;;30.60;39.59;99792.91;12209436;19;20002;-83
2023/09/08 16:11:48;;;;;;;7.00;4.75;;;;;;;30.54;39.49;99789.59;12182146;19;20006;-84
2023/09/08 16:15:50;;;;;;;6.18;4.72;;;;;;;30.51;40.54;99789.53;12199571;19;20007;-88
2023/09/08 16:19:51;;;;;;;6.47;4.10;;;;;;;30.43;41.12;99789.47;12200146;19;20407;-84
2023/09/08 16:23:53;;;;;;;10.95;4.85;;;;;;;30.24;42.04;99789.56;12173298;19;19994;-85
2023/09/08 16:27:55;;;;;;;7.05;4.82;;;;;;;30.11;43.08;99786.09;12201078;19;20010;-84
2023/09/08 16:31:57;;;;;;;7.07;4.38;;;;;;;30.13;44.47;99785.72;12198696;19;20003;-85
2023/09/08 16:35:59;;;;;;;8.05;4.63;;;;;;;30.55;43.77;99788.41;12172541;19;20034;-84
2023/09/08 16:40:00;;;;;;;6.25;4.10;;;;;;;30.27;44.37;99794.47;12198894;19;20013;-84
2023/09/08 16:44:02;;;;;;;8.00;4.20;;;;;;;29.87;45.45;99786.53;12196588;19;20002;-85
2023/09/08 16:48:04;;;;;;;5.97;4.38;;;;;;;29.48;46.50;99798.03;12175284;19;20015;-84
2023/09/08 16:52:06;;;;;;;5.70;4.00;;;;;;;29.13;47.55;99793.31;12195933;19;20017;-85
2023/09/08 16:56:08;;;;;;;7.15;5.18;;;;;;;28.83;48.01;99793.06;12193663;19;20045;-85
2023/09/08 17:00:11;;;;;;;6.85;4.80;;;;;;;28.57;50.18;99794.56;12175917;19;20118;-85
2023/09/08 17:04:13;;;;;;;13.52;5.03;;;;;;;28.35;50.87;99781.91;12194128;19;20031;-85
2023/09/08 17:08:15;;;;;;;;;;;;;;;28.09;50.59;99795.88;12195516;19;20011;-85
2023/09/08 17:12:16;;;;;;;5.90;4.30;;;;;;;27.88;52.54;99793.34;12176275;19;20342;-85
2023/09/08 17:16:18;;;;;;;10.63;5.13;;;;;;;27.62;53.86;99789.00;12223642;19;20488;-86
2023/09/08 17:20:20;;;;;;;7.60;4.30;;;;;;;27.43;55.26;99786.91;12206769;19;20019;-85
2023/09/08 17:24:22;;;;;;;5.68;4.47;;;;;;;27.22;55.93;99787.16;12234373;19;20014;-85
2023/09/08 17:28:24;;;;;;;6.47;4.80;;;;;;;27.04;56.58;99791.47;12252897;19;20007;-84
2023/09/08 17:32:26;;;;;;;9.15;4.05;;;;;;;26.88;57.33;99796.25;12244666;19;20015;-86
2023/09/08 17:36:27;;;;;;;6.78;4.30;;;;;;;26.67;58.33;99794.44;12269562;19;20014;-86
2023/09/08 17:40:30;;;;;;;7.35;4.55;;;;;;;26.49;59.01;99798.72;12260347;19;20552;-86
2023/09/08 17:44:34;;;;;;;;;;;;;;;26.28;59.43;99805.34;12215342;19;20014;-87
2023/09/08 17:48:36;;;;;;;9.32;4.40;;;;;;;26.09;60.87;99799.50;12229480;19;19981;-85
2023/09/08 17:52:37;;;;;;;7.07;4.57;;;;;;;25.86;61.56;99811.28;12225022;19;20038;-85
2023/09/08 17:56:39;;;;;;;12.68;4.85;;;;;;;25.68;61.93;99807.81;12199380;19;20007;-85
2023/09/08 18:00:46;;;;;;;8.68;4.30;;;;;;;25.49;62.85;99809.53;12223508;19;20031;-86
2023/09/08 18:04:52;;;;;;;8.48;5.13;;;;;;;25.31;63.45;99812.56;12217343;19;20006;-86
2023/09/08 18:08:54;;;;;;;8.32;4.55;;;;;;;25.13;64.13;99806.28;12195059;19;20007;-85
2023/09/08 18:12:56;;;;;;;10.15;5.15;;;;;;;24.96;64.66;99807.28;12216382;19;20023;-85
2023/09/08 18:16:58;;;;;;;10.40;4.30;;;;;;;24.83;64.83;99813.19;12228901;19;20006;-85
2023/09/08 18:21:00;;;;;;;7.35;5.05;;;;;;;24.68;65.50;99811.84;12198556;19;20259;-84
2023/09/08 18:25:01;;;;;;;9.85;4.13;;;;;;;24.56;66.35;99813.41;12215186;19;20019;-85
2023/09/08 18:29:03;;;;;;;9.60;4.63;;;;;;;24.46;66.46;99815.84;12208262;19;20011;-84
2023/09/08 18:33:05;;;;;;;7.80;4.73;;;;;;;24.38;65.83;99814.69;12179874;19;20616;-85
2023/09/08 18:37:06;;;;;;;7.27;4.47;;;;;;;24.35;66.03;99821.00;12209873;19;20263;-85
2023/09/08 18:41:08;;;;;;;7.77;4.63;;;;;;;24.29;66.77;99819.56;12207357;19;20355;-86
2023/09/08 18:50:14;;;;;;;7.28;4.82;;;;;;;24.11;67.71;99828.09;12205715;19;20014;-85
2023/09/08 18:54:16;;;;;;;9.85;5.20;;;;;;;24.07;68.40;99826.34;12178669;19;20034;-86